Clearbrook, Washington
Current Conditions -  °F | °C
As of 5:29 AM on Wednesday 22 Oct 2014 (Local Time) from CYXX Reporting Station
Overcast Overcast  
Wind Chill: 55°   Ceiling: 3500
Heat Index: 55°   Visibility: 15mi
Dew Point: 52°   Wind: 13mph
Humidity: 88%   Direction: 160°SSE
Pressure: 29.61"   Gusts: 20mph
Location:  48.9612°N, 122.12°W
Report Text: CYXX 221229Z 16011G17KT 120V200 15SM FEW010 BKN035 OVC070 13/11 A2961 RMK SF1SC7AC1 SF TR SLP026 DENSITY ALT 300FT
Loading
Personal Weather Stations






























Interactive Weather Map New forecast layout! Learn more

10-Day Weather Forecast

Advertisements
Track Severe Weather on mobile